Vremea acum in Zlatna - Romania

Vrei sa afli care e starea vremii acum in Arad - Romania? Dorim sa iti furnizam starea vremii pentru Arad - Romania. Starea vremii Arad - Romania pentru astazi.

Vremea acum in Zlatna

Temperatura: 26 °C

Se simte ca: 26 °C
Innorat: 0 %
Precipitatii: 0 %
Presiune atmosferica: 1020 hPa
Umiditate: 39%
Vizibilitate: 10 km
Vantul bate din E cu 0 km/h

Evolutia vremii in Zlatna pe ore

Ora: 11:00
Parțial noros
Temperatura: 27.6°C
Sansa de precipitatii: 0%
Ora Descriere Temp Se simte Precipitatii Umiditate Vant
00:00Parțial noros19.3°19.3°0%73%SSW 1.8 KM/H
01:00Parțial noros16.8°16.8°0%75%ESE 1.8 KM/H
02:00Parțial noros14.2°14.2°0%76%NNE 1.4 KM/H
03:00Parțial noros13.9°13.9°0%77%NNE 1.8 KM/H
04:00Parțial noros13.5°13.5°0%77%N 2.2 KM/H
05:00Parțial noros13.2°13.2°0%77%N 2.5 KM/H
06:00Parțial noros15.9°15.9°0%71%NNE 3.2 KM/H
07:00Parțial noros18.7°18.7°0%64%ENE 3.6 KM/H
08:00Parțial noros21.4°21.4°0%57%E 4.3 KM/H
09:00Parțial noros23.5°25.4°0%51%E 5 KM/H
10:00Parțial noros25.5°26.4°0%45%E 6.1 KM/H
11:00Parțial noros27.6°27.4°0%39%E 6.8 KM/H
12:00Parțial noros28.9°28.6°0%36%E 6.1 KM/H
13:00Parțial noros30.3°29.7°0%34%E 5.8 KM/H
14:00Parțial noros31.6°30.9°0%31%E 5 KM/H
15:00Parțial noros31.5°30.9°0%32%E 5 KM/H
16:00Parțial noros31.4°30.9°0%33%E 5.4 KM/H
17:00Parțial noros31.3°30.9°0%34%E 5.4 KM/H
18:00Parțial noros30°30.7°0%41%S 4.3 KM/H
19:00Parțial noros28.6°30.5°0%48%W 2.9 KM/H
20:00Parțial noros27.3°30.3°0%55%N 1.8 KM/H
21:00Parțial noros26°28.6°0%58%NNW 1.8 KM/H
22:00Parțial noros24.6°27°0%60%NW 2.2 KM/H
23:00Parțial noros23.3°25.3°0%63%NW 2.2 KM/H